sensor_id;sensor_type;location;lat;lon;timestamp;P1;durP1;ratioP1;P2;durP2;ratioP2
17606;SDS011;8922;52.240;20.980;2022-10-04T00:02:02;4.70;;;4.13;;
17606;SDS011;8922;52.240;20.980;2022-10-04T00:04:44;6.30;;;4.80;;
17606;SDS011;8922;52.240;20.980;2022-10-04T00:07:17;5.13;;;4.10;;
17606;SDS011;8922;52.240;20.980;2022-10-04T00:09:49;5.93;;;4.33;;
17606;SDS011;8922;52.240;20.980;2022-10-04T00:12:20;5.77;;;4.40;;
17606;SDS011;8922;52.240;20.980;2022-10-04T00:14:49;6.17;;;4.30;;
17606;SDS011;8922;52.240;20.980;2022-10-04T00:17:19;5.10;;;4.30;;
17606;SDS011;8922;52.240;20.980;2022-10-04T00:19:51;5.67;;;4.40;;
17606;SDS011;8922;52.240;20.980;2022-10-04T00:22:20;9.07;;;3.60;;
17606;SDS011;8922;52.240;20.980;2022-10-04T00:31:07;5.33;;;3.63;;
17606;SDS011;8922;52.240;20.980;2022-10-04T00:33:44;5.23;;;3.63;;
17606;SDS011;8922;52.240;20.980;2022-10-04T00:39:12;6.07;;;3.37;;
17606;SDS011;8922;52.240;20.980;2022-10-04T00:41:55;6.80;;;3.87;;
17606;SDS011;8922;52.240;20.980;2022-10-04T00:44:29;5.50;;;3.40;;
17606;SDS011;8922;52.240;20.980;2022-10-04T00:47:13;5.43;;;3.73;;
17606;SDS011;8922;52.240;20.980;2022-10-04T00:49:47;6.07;;;3.83;;
17606;SDS011;8922;52.240;20.980;2022-10-04T00:52:21;4.67;;;3.30;;
17606;SDS011;8922;52.240;20.980;2022-10-04T00:54:52;5.07;;;3.60;;
17606;SDS011;8922;52.240;20.980;2022-10-04T00:57:24;6.10;;;3.47;;
17606;SDS011;8922;52.240;20.980;2022-10-04T00:59:54;6.03;;;3.73;;
17606;SDS011;8922;52.240;20.980;2022-10-04T01:02:27;8.50;;;4.00;;
17606;SDS011;8922;52.240;20.980;2022-10-04T01:05:00;5.93;;;3.50;;
17606;SDS011;8922;52.240;20.980;2022-10-04T01:07:31;9.13;;;3.83;;
17606;SDS011;8922;52.240;20.980;2022-10-04T01:10:03;6.80;;;3.57;;
17606;SDS011;8922;52.240;20.980;2022-10-04T01:12:41;8.30;;;3.33;;
17606;SDS011;8922;52.240;20.980;2022-10-04T01:15:13;5.67;;;3.20;;
17606;SDS011;8922;52.240;20.980;2022-10-04T01:18:06;5.37;;;2.93;;
17606;SDS011;8922;52.240;20.980;2022-10-04T01:20:39;7.40;;;3.13;;
17606;SDS011;8922;52.240;20.980;2022-10-04T01:29:05;5.90;;;2.70;;
17606;SDS011;8922;52.240;20.980;2022-10-04T01:31:35;5.27;;;3.03;;
17606;SDS011;8922;52.240;20.980;2022-10-04T01:34:04;5.53;;;3.53;;
17606;SDS011;8922;52.240;20.980;2022-10-04T01:36:32;3.87;;;2.83;;
17606;SDS011;8922;52.240;20.980;2022-10-04T01:39:00;4.27;;;2.90;;
17606;SDS011;8922;52.240;20.980;2022-10-04T01:41:28;5.77;;;3.00;;
17606;SDS011;8922;52.240;20.980;2022-10-04T01:44:04;3.90;;;2.70;;
17606;SDS011;8922;52.240;20.980;2022-10-04T01:46:34;7.63;;;3.17;;
17606;SDS011;8922;52.240;20.980;2022-10-04T01:49:05;3.40;;;2.50;;
17606;SDS011;8922;52.240;20.980;2022-10-04T01:51:37;6.13;;;2.90;;
17606;SDS011;8922;52.240;20.980;2022-10-04T01:54:09;4.33;;;2.53;;
17606;SDS011;8922;52.240;20.980;2022-10-04T01:56:40;5.27;;;2.63;;
17606;SDS011;8922;52.240;20.980;2022-10-04T01:59:14;4.87;;;2.90;;
17606;SDS011;8922;52.240;20.980;2022-10-04T02:01:44;5.13;;;2.60;;
17606;SDS011;8922;52.240;20.980;2022-10-04T02:04:16;5.60;;;2.67;;
17606;SDS011;8922;52.240;20.980;2022-10-04T02:06:47;3.93;;;2.60;;
17606;SDS011;8922;52.240;20.980;2022-10-04T02:09:18;6.53;;;2.80;;
17606;SDS011;8922;52.240;20.980;2022-10-04T02:11:49;3.27;;;2.67;;
17606;SDS011;8922;52.240;20.980;2022-10-04T02:14:19;5.20;;;2.60;;
17606;SDS011;8922;52.240;20.980;2022-10-04T02:16:49;2.60;;;2.23;;
17606;SDS011;8922;52.240;20.980;2022-10-04T02:19:17;5.50;;;2.50;;
17606;SDS011;8922;52.240;20.980;2022-10-04T02:21:45;3.60;;;2.20;;
17606;SDS011;8922;52.240;20.980;2022-10-04T02:24:13;6.43;;;2.40;;
17606;SDS011;8922;52.240;20.980;2022-10-04T02:26:40;4.97;;;2.50;;
17606;SDS011;8922;52.240;20.980;2022-10-04T02:29:08;4.53;;;2.57;;
17606;SDS011;8922;52.240;20.980;2022-10-04T02:31:37;5.80;;;2.53;;
17606;SDS011;8922;52.240;20.980;2022-10-04T02:34:23;5.00;;;2.37;;
17606;SDS011;8922;52.240;20.980;2022-10-04T02:36:50;3.73;;;2.40;;
17606;SDS011;8922;52.240;20.980;2022-10-04T02:39:19;6.07;;;2.37;;
17606;SDS011;8922;52.240;20.980;2022-10-04T02:41:50;3.80;;;2.10;;
17606;SDS011;8922;52.240;20.980;2022-10-04T02:44:20;4.50;;;2.30;;
17606;SDS011;8922;52.240;20.980;2022-10-04T02:46:52;6.33;;;2.23;;
17606;SDS011;8922;52.240;20.980;2022-10-04T02:49:25;2.90;;;2.20;;
17606;SDS011;8922;52.240;20.980;2022-10-04T02:51:57;6.27;;;2.03;;
17606;SDS011;8922;52.240;20.980;2022-10-04T02:54:29;4.53;;;2.20;;
17606;SDS011;8922;52.240;20.980;2022-10-04T02:57:01;2.87;;;2.00;;
17606;SDS011;8922;52.240;20.980;2022-10-04T02:59:28;6.37;;;1.90;;
17606;SDS011;8922;52.240;20.980;2022-10-04T03:01:58;3.80;;;2.00;;
17606;SDS011;8922;52.240;20.980;2022-10-04T03:04:27;3.37;;;1.93;;
17606;SDS011;8922;52.240;20.980;2022-10-04T03:06:55;4.90;;;2.00;;
17606;SDS011;8922;52.240;20.980;2022-10-04T03:09:24;3.60;;;1.97;;
17606;SDS011;8922;52.240;20.980;2022-10-04T03:11:52;2.30;;;1.60;;
17606;SDS011;8922;52.240;20.980;2022-10-04T03:14:20;4.63;;;1.83;;
17606;SDS011;8922;52.240;20.980;2022-10-04T03:16:50;3.60;;;1.50;;
17606;SDS011;8922;52.240;20.980;2022-10-04T03:19:21;3.83;;;1.70;;
17606;SDS011;8922;52.240;20.980;2022-10-04T03:21:52;2.23;;;1.90;;
17606;SDS011;8922;52.240;20.980;2022-10-04T03:24:22;3.83;;;1.80;;
17606;SDS011;8922;52.240;20.980;2022-10-04T03:26:52;3.47;;;2.00;;
17606;SDS011;8922;52.240;20.980;2022-10-04T03:29:21;4.83;;;1.90;;
17606;SDS011;8922;52.240;20.980;2022-10-04T03:31:50;2.73;;;2.03;;
17606;SDS011;8922;52.240;20.980;2022-10-04T03:34:22;3.97;;;2.00;;
17606;SDS011;8922;52.240;20.980;2022-10-04T03:36:51;3.33;;;2.27;;
17606;SDS011;8922;52.240;20.980;2022-10-04T03:39:24;4.60;;;2.80;;
17606;SDS011;8922;52.240;20.980;2022-10-04T03:41:53;5.10;;;2.03;;
17606;SDS011;8922;52.240;20.980;2022-10-04T03:44:21;5.80;;;2.30;;
17606;SDS011;8922;52.240;20.980;2022-10-04T03:46:48;2.93;;;2.40;;
17606;SDS011;8922;52.240;20.980;2022-10-04T03:49:16;6.73;;;2.53;;
17606;SDS011;8922;52.240;20.980;2022-10-04T03:51:52;6.40;;;2.30;;
17606;SDS011;8922;52.240;20.980;2022-10-04T03:54:20;3.17;;;2.33;;
17606;SDS011;8922;52.240;20.980;2022-10-04T03:56:51;2.30;;;2.10;;
17606;SDS011;8922;52.240;20.980;2022-10-04T03:59:19;4.30;;;2.47;;
17606;SDS011;8922;52.240;20.980;2022-10-04T04:01:48;3.50;;;2.50;;
17606;SDS011;8922;52.240;20.980;2022-10-04T04:04:27;5.27;;;2.70;;
17606;SDS011;8922;52.240;20.980;2022-10-04T04:07:02;3.17;;;2.70;;
17606;SDS011;8922;52.240;20.980;2022-10-04T04:09:35;3.40;;;2.77;;
17606;SDS011;8922;52.240;20.980;2022-10-04T04:12:08;4.23;;;2.90;;
17606;SDS011;8922;52.240;20.980;2022-10-04T04:14:38;4.03;;;2.90;;
17606;SDS011;8922;52.240;20.980;2022-10-04T04:17:17;4.07;;;2.40;;
17606;SDS011;8922;52.240;20.980;2022-10-04T04:20:06;3.57;;;2.93;;
17606;SDS011;8922;52.240;20.980;2022-10-04T04:22:53;4.93;;;2.43;;
17606;SDS011;8922;52.240;20.980;2022-10-04T04:25:25;3.60;;;2.60;;
17606;SDS011;8922;52.240;20.980;2022-10-04T04:27:55;3.63;;;2.40;;
17606;SDS011;8922;52.240;20.980;2022-10-04T04:30:27;8.37;;;3.10;;
17606;SDS011;8922;52.240;20.980;2022-10-04T04:32:56;3.10;;;2.63;;
17606;SDS011;8922;52.240;20.980;2022-10-04T04:35:32;3.57;;;2.67;;
17606;SDS011;8922;52.240;20.980;2022-10-04T04:38:02;5.50;;;4.20;;
17606;SDS011;8922;52.240;20.980;2022-10-04T04:40:32;6.27;;;4.27;;
17606;SDS011;8922;52.240;20.980;2022-10-04T04:42:59;4.67;;;3.10;;
17606;SDS011;8922;52.240;20.980;2022-10-04T04:45:29;4.57;;;3.10;;
17606;SDS011;8922;52.240;20.980;2022-10-04T04:47:58;4.07;;;2.70;;
17606;SDS011;8922;52.240;20.980;2022-10-04T04:50:28;4.67;;;3.13;;
17606;SDS011;8922;52.240;20.980;2022-10-04T04:52:58;3.80;;;2.80;;
17606;SDS011;8922;52.240;20.980;2022-10-04T04:55:33;5.20;;;2.90;;
17606;SDS011;8922;52.240;20.980;2022-10-04T04:58:05;3.33;;;2.93;;
17606;SDS011;8922;52.240;20.980;2022-10-04T05:00:35;3.07;;;2.57;;
17606;SDS011;8922;52.240;20.980;2022-10-04T05:03:05;5.00;;;3.87;;
17606;SDS011;8922;52.240;20.980;2022-10-04T05:05:42;3.37;;;2.90;;
17606;SDS011;8922;52.240;20.980;2022-10-04T05:08:14;5.57;;;2.70;;
17606;SDS011;8922;52.240;20.980;2022-10-04T05:10:47;5.83;;;2.93;;
17606;SDS011;8922;52.240;20.980;2022-10-04T05:13:19;5.77;;;2.60;;
17606;SDS011;8922;52.240;20.980;2022-10-04T05:15:50;6.40;;;2.53;;
17606;SDS011;8922;52.240;20.980;2022-10-04T05:18:27;4.87;;;2.90;;
17606;SDS011;8922;52.240;20.980;2022-10-04T05:20:57;4.53;;;2.40;;
17606;SDS011;8922;52.240;20.980;2022-10-04T05:23:31;4.03;;;2.70;;
17606;SDS011;8922;52.240;20.980;2022-10-04T05:25:59;2.93;;;2.30;;
17606;SDS011;8922;52.240;20.980;2022-10-04T05:28:28;6.70;;;2.73;;
17606;SDS011;8922;52.240;20.980;2022-10-04T05:31:00;5.43;;;2.60;;
17606;SDS011;8922;52.240;20.980;2022-10-04T05:33:38;4.20;;;2.20;;
17606;SDS011;8922;52.240;20.980;2022-10-04T05:36:29;3.30;;;1.80;;
17606;SDS011;8922;52.240;20.980;2022-10-04T05:39:08;4.43;;;2.33;;
17606;SDS011;8922;52.240;20.980;2022-10-04T05:41:45;4.67;;;2.23;;
17606;SDS011;8922;52.240;20.980;2022-10-04T05:44:22;5.30;;;2.20;;
17606;SDS011;8922;52.240;20.980;2022-10-04T05:46:51;6.80;;;2.13;;
17606;SDS011;8922;52.240;20.980;2022-10-04T05:49:20;3.40;;;2.20;;
17606;SDS011;8922;52.240;20.980;2022-10-04T05:51:49;5.60;;;2.00;;
17606;SDS011;8922;52.240;20.980;2022-10-04T05:54:20;3.60;;;1.90;;
17606;SDS011;8922;52.240;20.980;2022-10-04T05:56:56;4.20;;;2.20;;
17606;SDS011;8922;52.240;20.980;2022-10-04T05:59:43;6.23;;;2.30;;
17606;SDS011;8922;52.240;20.980;2022-10-04T06:02:22;2.57;;;2.03;;
17606;SDS011;8922;52.240;20.980;2022-10-04T06:05:04;4.60;;;1.80;;
17606;SDS011;8922;52.240;20.980;2022-10-04T06:07:37;4.93;;;1.80;;
17606;SDS011;8922;52.240;20.980;2022-10-04T06:10:18;3.57;;;2.10;;
17606;SDS011;8922;52.240;20.980;2022-10-04T06:13:12;6.00;;;2.30;;
17606;SDS011;8922;52.240;20.980;2022-10-04T06:15:52;3.33;;;1.87;;
17606;SDS011;8922;52.240;20.980;2022-10-04T06:18:33;3.97;;;2.30;;
17606;SDS011;8922;52.240;20.980;2022-10-04T06:21:19;1.93;;;1.80;;
17606;SDS011;8922;52.240;20.980;2022-10-04T06:23:54;4.47;;;1.90;;
17606;SDS011;8922;52.240;20.980;2022-10-04T06:26:27;5.80;;;1.60;;
17606;SDS011;8922;52.240;20.980;2022-10-04T06:28:59;6.30;;;2.40;;
17606;SDS011;8922;52.240;20.980;2022-10-04T06:34:49;2.17;;;1.60;;
17606;SDS011;8922;52.240;20.980;2022-10-04T06:37:47;3.77;;;1.73;;
17606;SDS011;8922;52.240;20.980;2022-10-04T06:40:46;3.17;;;2.00;;
17606;SDS011;8922;52.240;20.980;2022-10-04T06:43:29;2.60;;;1.70;;
17606;SDS011;8922;52.240;20.980;2022-10-04T06:46:10;3.00;;;1.93;;
17606;SDS011;8922;52.240;20.980;2022-10-04T06:48:46;5.23;;;2.40;;
17606;SDS011;8922;52.240;20.980;2022-10-04T06:51:52;3.60;;;1.97;;
17606;SDS011;8922;52.240;20.980;2022-10-04T06:54:30;4.67;;;2.27;;
17606;SDS011;8922;52.240;20.980;2022-10-04T06:57:19;2.30;;;2.00;;
17606;SDS011;8922;52.240;20.980;2022-10-04T07:00:12;4.47;;;2.10;;
17606;SDS011;8922;52.240;20.980;2022-10-04T07:02:45;2.87;;;1.70;;
17606;SDS011;8922;52.240;20.980;2022-10-04T07:05:20;8.07;;;2.13;;
17606;SDS011;8922;52.240;20.980;2022-10-04T07:07:55;4.13;;;2.10;;
17606;SDS011;8922;52.240;20.980;2022-10-04T07:10:38;2.77;;;1.77;;
17606;SDS011;8922;52.240;20.980;2022-10-04T07:13:18;3.07;;;1.77;;
17606;SDS011;8922;52.240;20.980;2022-10-04T07:16:05;4.00;;;1.53;;
17606;SDS011;8922;52.240;20.980;2022-10-04T07:18:53;4.37;;;2.00;;
17606;SDS011;8922;52.240;20.980;2022-10-04T07:21:26;3.17;;;1.93;;
17606;SDS011;8922;52.240;20.980;2022-10-04T07:24:02;2.87;;;2.13;;
17606;SDS011;8922;52.240;20.980;2022-10-04T07:26:36;4.23;;;2.10;;
17606;SDS011;8922;52.240;20.980;2022-10-04T07:29:11;4.33;;;1.80;;
17606;SDS011;8922;52.240;20.980;2022-10-04T07:31:50;3.40;;;1.67;;
17606;SDS011;8922;52.240;20.980;2022-10-04T07:34:21;4.20;;;1.97;;
17606;SDS011;8922;52.240;20.980;2022-10-04T07:36:52;6.13;;;2.63;;
17606;SDS011;8922;52.240;20.980;2022-10-04T07:39:21;4.50;;;1.73;;
17606;SDS011;8922;52.240;20.980;2022-10-04T07:41:51;4.77;;;1.93;;
17606;SDS011;8922;52.240;20.980;2022-10-04T07:44:23;7.57;;;2.20;;
17606;SDS011;8922;52.240;20.980;2022-10-04T07:46:59;5.07;;;1.80;;
17606;SDS011;8922;52.240;20.980;2022-10-04T07:49:37;2.60;;;1.50;;
17606;SDS011;8922;52.240;20.980;2022-10-04T07:52:11;1.90;;;1.47;;
17606;SDS011;8922;52.240;20.980;2022-10-04T07:54:51;2.70;;;1.70;;
17606;SDS011;8922;52.240;20.980;2022-10-04T07:57:26;3.17;;;2.03;;
17606;SDS011;8922;52.240;20.980;2022-10-04T07:59:59;3.30;;;2.00;;
17606;SDS011;8922;52.240;20.980;2022-10-04T08:02:32;3.77;;;1.87;;
17606;SDS011;8922;52.240;20.980;2022-10-04T08:05:11;5.10;;;2.00;;
17606;SDS011;8922;52.240;20.980;2022-10-04T08:07:50;2.53;;;1.70;;
17606;SDS011;8922;52.240;20.980;2022-10-04T08:10:41;3.73;;;1.53;;
17606;SDS011;8922;52.240;20.980;2022-10-04T08:13:19;2.67;;;1.70;;
17606;SDS011;8922;52.240;20.980;2022-10-04T08:15:50;2.03;;;1.60;;
17606;SDS011;8922;52.240;20.980;2022-10-04T08:18:25;3.93;;;1.87;;
17606;SDS011;8922;52.240;20.980;2022-10-04T08:21:09;1.90;;;1.50;;
17606;SDS011;8922;52.240;20.980;2022-10-04T08:23:54;3.93;;;1.77;;
17606;SDS011;8922;52.240;20.980;2022-10-04T08:26:36;2.83;;;1.60;;
17606;SDS011;8922;52.240;20.980;2022-10-04T08:29:21;6.10;;;2.40;;
17606;SDS011;8922;52.240;20.980;2022-10-04T08:32:10;5.50;;;1.90;;
17606;SDS011;8922;52.240;20.980;2022-10-04T08:34:58;1.80;;;1.60;;
17606;SDS011;8922;52.240;20.980;2022-10-04T08:37:48;3.23;;;1.60;;
17606;SDS011;8922;52.240;20.980;2022-10-04T08:43:34;3.30;;;1.93;;
17606;SDS011;8922;52.240;20.980;2022-10-04T08:46:38;2.57;;;1.60;;
17606;SDS011;8922;52.240;20.980;2022-10-04T08:49:27;2.30;;;1.27;;
17606;SDS011;8922;52.240;20.980;2022-10-04T08:58:24;2.53;;;1.40;;
17606;SDS011;8922;52.240;20.980;2022-10-04T09:07:43;2.60;;;1.13;;
17606;SDS011;8922;52.240;20.980;2022-10-04T09:10:29;1.63;;;1.03;;
17606;SDS011;8922;52.240;20.980;2022-10-04T09:13:13;0.80;;;0.80;;
17606;SDS011;8922;52.240;20.980;2022-10-04T09:15:57;2.03;;;0.90;;
17606;SDS011;8922;52.240;20.980;2022-10-04T09:18:43;1.30;;;1.10;;
17606;SDS011;8922;52.240;20.980;2022-10-04T09:21:20;1.20;;;1.07;;
17606;SDS011;8922;52.240;20.980;2022-10-04T09:27:02;0.90;;;0.70;;
17606;SDS011;8922;52.240;20.980;2022-10-04T09:38:38;4.13;;;1.20;;
17606;SDS011;8922;52.240;20.980;2022-10-04T09:41:39;1.10;;;1.00;;
17606;SDS011;8922;52.240;20.980;2022-10-04T09:44:23;2.20;;;1.00;;
17606;SDS011;8922;52.240;20.980;2022-10-04T09:47:31;3.77;;;1.00;;
17606;SDS011;8922;52.240;20.980;2022-10-04T09:50:23;2.43;;;1.20;;
17606;SDS011;8922;52.240;20.980;2022-10-04T09:53:16;2.50;;;1.30;;
17606;SDS011;8922;52.240;20.980;2022-10-04T09:56:08;4.47;;;1.30;;
17606;SDS011;8922;52.240;20.980;2022-10-04T09:58:56;4.43;;;1.53;;
17606;SDS011;8922;52.240;20.980;2022-10-04T10:01:53;2.47;;;0.90;;
17606;SDS011;8922;52.240;20.980;2022-10-04T10:04:40;1.13;;;1.00;;
17606;SDS011;8922;52.240;20.980;2022-10-04T10:07:20;1.07;;;0.97;;
17606;SDS011;8922;52.240;20.980;2022-10-04T10:10:00;1.90;;;1.07;;
17606;SDS011;8922;52.240;20.980;2022-10-04T10:13:09;7.27;;;1.97;;
17606;SDS011;8922;52.240;20.980;2022-10-04T10:16:11;3.40;;;1.07;;
17606;SDS011;8922;52.240;20.980;2022-10-04T10:18:55;1.90;;;1.33;;
17606;SDS011;8922;52.240;20.980;2022-10-04T10:21:57;1.40;;;0.85;;
17606;SDS011;8922;52.240;20.980;2022-10-04T10:24:50;3.47;;;1.13;;
17606;SDS011;8922;52.240;20.980;2022-10-04T10:27:33;0.90;;;0.70;;
17606;SDS011;8922;52.240;20.980;2022-10-04T10:30:24;4.00;;;0.95;;
17606;SDS011;8922;52.240;20.980;2022-10-04T10:33:09;1.38;;;0.82;;
17606;SDS011;8922;52.240;20.980;2022-10-04T10:36:10;1.77;;;0.85;;
17606;SDS011;8922;52.240;20.980;2022-10-04T10:38:56;1.33;;;0.80;;
17606;SDS011;8922;52.240;20.980;2022-10-04T10:41:55;2.38;;;0.70;;
17606;SDS011;8922;52.240;20.980;2022-10-04T10:44:40;1.55;;;0.77;;
17606;SDS011;8922;52.240;20.980;2022-10-04T10:47:23;1.05;;;0.82;;
17606;SDS011;8922;52.240;20.980;2022-10-04T10:50:03;2.25;;;1.08;;
17606;SDS011;8922;52.240;20.980;2022-10-04T10:59:07;1.73;;;0.93;;
17606;SDS011;8922;52.240;20.980;2022-10-04T11:02:05;1.38;;;0.90;;
17606;SDS011;8922;52.240;20.980;2022-10-04T11:04:50;2.75;;;0.70;;
17606;SDS011;8922;52.240;20.980;2022-10-04T11:13:37;1.60;;;1.20;;
17606;SDS011;8922;52.240;20.980;2022-10-04T11:22:49;1.52;;;0.70;;
17606;SDS011;8922;52.240;20.980;2022-10-04T11:25:58;1.98;;;0.80;;
17606;SDS011;8922;52.240;20.980;2022-10-04T11:28:41;2.95;;;1.35;;
17606;SDS011;8922;52.240;20.980;2022-10-04T11:31:21;1.77;;;1.15;;
17606;SDS011;8922;52.240;20.980;2022-10-04T11:34:16;1.48;;;1.10;;
17606;SDS011;8922;52.240;20.980;2022-10-04T11:37:11;3.60;;;1.10;;
17606;SDS011;8922;52.240;20.980;2022-10-04T11:42:57;1.95;;;1.15;;
17606;SDS011;8922;52.240;20.980;2022-10-04T11:48:37;1.60;;;0.90;;
17606;SDS011;8922;52.240;20.980;2022-10-04T11:54:29;1.25;;;1.00;;
17606;SDS011;8922;52.240;20.980;2022-10-04T11:57:32;2.35;;;1.58;;
17606;SDS011;8922;52.240;20.980;2022-10-04T12:00:07;2.97;;;1.23;;
17606;SDS011;8922;52.240;20.980;2022-10-04T12:05:37;1.83;;;1.05;;
17606;SDS011;8922;52.240;20.980;2022-10-04T12:08:21;1.08;;;0.70;;
17606;SDS011;8922;52.240;20.980;2022-10-04T12:11:03;2.70;;;0.80;;
17606;SDS011;8922;52.240;20.980;2022-10-04T12:13:47;3.13;;;1.58;;
17606;SDS011;8922;52.240;20.980;2022-10-04T12:16:29;1.42;;;0.90;;
17606;SDS011;8922;52.240;20.980;2022-10-04T12:19:22;5.00;;;0.98;;
17606;SDS011;8922;52.240;20.980;2022-10-04T12:22:15;1.90;;;1.30;;
17606;SDS011;8922;52.240;20.980;2022-10-04T12:24:59;1.33;;;0.95;;
17606;SDS011;8922;52.240;20.980;2022-10-04T12:31:06;1.20;;;1.10;;
17606;SDS011;8922;52.240;20.980;2022-10-04T12:33:43;7.30;;;1.13;;
17606;SDS011;8922;52.240;20.980;2022-10-04T12:36:21;1.77;;;1.20;;
17606;SDS011;8922;52.240;20.980;2022-10-04T12:39:12;3.08;;;1.02;;
17606;SDS011;8922;52.240;20.980;2022-10-04T12:41:59;0.80;;;0.80;;
17606;SDS011;8922;52.240;20.980;2022-10-04T12:44:48;1.85;;;1.00;;
17606;SDS011;8922;52.240;20.980;2022-10-04T12:47:42;2.85;;;1.30;;
17606;SDS011;8922;52.240;20.980;2022-10-04T12:50:21;1.17;;;1.08;;
17606;SDS011;8922;52.240;20.980;2022-10-04T12:52:58;3.67;;;1.50;;
17606;SDS011;8922;52.240;20.980;2022-10-04T12:55:45;1.77;;;1.67;;
17606;SDS011;8922;52.240;20.980;2022-10-04T12:58:23;3.10;;;1.65;;
17606;SDS011;8922;52.240;20.980;2022-10-04T13:00:57;1.45;;;1.17;;
17606;SDS011;8922;52.240;20.980;2022-10-04T13:03:34;1.98;;;1.15;;
17606;SDS011;8922;52.240;20.980;2022-10-04T13:06:25;3.22;;;1.00;;
17606;SDS011;8922;52.240;20.980;2022-10-04T13:09:01;2.30;;;1.50;;
17606;SDS011;8922;52.240;20.980;2022-10-04T13:11:54;1.63;;;1.08;;
17606;SDS011;8922;52.240;20.980;2022-10-04T13:17:35;1.67;;;1.45;;
17606;SDS011;8922;52.240;20.980;2022-10-04T13:23:18;1.65;;;1.10;;
17606;SDS011;8922;52.240;20.980;2022-10-04T13:26:02;4.33;;;2.37;;
17606;SDS011;8922;52.240;20.980;2022-10-04T13:28:48;2.65;;;0.95;;
17606;SDS011;8922;52.240;20.980;2022-10-04T13:31:28;1.35;;;1.08;;
17606;SDS011;8922;52.240;20.980;2022-10-04T13:34:05;1.67;;;1.05;;
17606;SDS011;8922;52.240;20.980;2022-10-04T13:36:45;2.05;;;1.05;;
17606;SDS011;8922;52.240;20.980;2022-10-04T13:39:28;1.88;;;1.17;;
17606;SDS011;8922;52.240;20.980;2022-10-04T13:42:20;1.52;;;1.00;;
17606;SDS011;8922;52.240;20.980;2022-10-04T13:47:58;4.95;;;1.30;;
17606;SDS011;8922;52.240;20.980;2022-10-04T13:50:51;3.10;;;1.27;;
17606;SDS011;8922;52.240;20.980;2022-10-04T13:53:30;2.10;;;1.10;;
17606;SDS011;8922;52.240;20.980;2022-10-04T13:56:52;2.75;;;1.17;;
17606;SDS011;8922;52.240;20.980;2022-10-04T13:59:26;1.20;;;1.07;;
17606;SDS011;8922;52.240;20.980;2022-10-04T14:15:08;2.07;;;1.10;;
17606;SDS011;8922;52.240;20.980;2022-10-04T14:21:13;3.13;;;1.30;;
17606;SDS011;8922;52.240;20.980;2022-10-04T14:24:07;1.67;;;1.30;;
17606;SDS011;8922;52.240;20.980;2022-10-04T14:30:04;1.57;;;1.30;;
17606;SDS011;8922;52.240;20.980;2022-10-04T14:36:00;1.73;;;1.10;;
17606;SDS011;8922;52.240;20.980;2022-10-04T14:38:55;1.30;;;1.20;;
17606;SDS011;8922;52.240;20.980;2022-10-04T14:41:42;3.03;;;1.33;;
17606;SDS011;8922;52.240;20.980;2022-10-04T14:44:49;3.47;;;1.27;;
17606;SDS011;8922;52.240;20.980;2022-10-04T14:47:39;2.10;;;1.20;;
17606;SDS011;8922;52.240;20.980;2022-10-04T14:50:37;1.30;;;1.20;;
17606;SDS011;8922;52.240;20.980;2022-10-04T14:53:18;1.10;;;1.00;;
17606;SDS011;8922;52.240;20.980;2022-10-04T14:55:59;2.90;;;1.00;;
17606;SDS011;8922;52.240;20.980;2022-10-04T14:58:49;1.10;;;0.93;;
17606;SDS011;8922;52.240;20.980;2022-10-04T15:01:23;2.03;;;1.20;;
17606;SDS011;8922;52.240;20.980;2022-10-04T15:04:05;2.20;;;1.20;;
17606;SDS011;8922;52.240;20.980;2022-10-04T15:06:53;1.63;;;1.30;;
17606;SDS011;8922;52.240;20.980;2022-10-04T15:09:41;3.43;;;1.30;;
17606;SDS011;8922;52.240;20.980;2022-10-04T15:12:43;2.33;;;1.10;;
17606;SDS011;8922;52.240;20.980;2022-10-04T15:18:23;2.47;;;1.67;;
17606;SDS011;8922;52.240;20.980;2022-10-04T15:21:00;2.77;;;1.80;;
17606;SDS011;8922;52.240;20.980;2022-10-04T15:23:34;2.10;;;1.30;;
17606;SDS011;8922;52.240;20.980;2022-10-04T15:29:11;1.57;;;1.37;;
17606;SDS011;8922;52.240;20.980;2022-10-04T15:31:51;1.27;;;1.17;;
17606;SDS011;8922;52.240;20.980;2022-10-04T15:34:29;2.53;;;1.73;;
17606;SDS011;8922;52.240;20.980;2022-10-04T15:37:02;3.13;;;1.73;;
17606;SDS011;8922;52.240;20.980;2022-10-04T15:42:27;2.47;;;1.57;;
17606;SDS011;8922;52.240;20.980;2022-10-04T15:47:54;4.20;;;2.70;;
17606;SDS011;8922;52.240;20.980;2022-10-04T15:50:53;1.83;;;1.47;;
17606;SDS011;8922;52.240;20.980;2022-10-04T15:53:47;3.33;;;2.03;;
17606;SDS011;8922;52.240;20.980;2022-10-04T15:56:39;1.70;;;1.50;;
17606;SDS011;8922;52.240;20.980;2022-10-04T15:59:20;1.50;;;1.20;;
17606;SDS011;8922;52.240;20.980;2022-10-04T16:01:58;1.73;;;1.40;;
17606;SDS011;8922;52.240;20.980;2022-10-04T16:04:54;3.30;;;1.97;;
17606;SDS011;8922;52.240;20.980;2022-10-04T16:07:35;4.13;;;1.67;;
17606;SDS011;8922;52.240;20.980;2022-10-04T16:10:11;2.93;;;1.90;;
17606;SDS011;8922;52.240;20.980;2022-10-04T16:19:02;2.90;;;2.10;;
17606;SDS011;8922;52.240;20.980;2022-10-04T16:21:42;5.07;;;2.37;;
17606;SDS011;8922;52.240;20.980;2022-10-04T16:27:12;3.80;;;2.17;;
17606;SDS011;8922;52.240;20.980;2022-10-04T16:30:03;17.40;;;2.90;;
17606;SDS011;8922;52.240;20.980;2022-10-04T16:32:37;5.53;;;2.90;;
17606;SDS011;8922;52.240;20.980;2022-10-04T16:35:14;5.30;;;2.40;;
17606;SDS011;8922;52.240;20.980;2022-10-04T16:37:53;4.63;;;2.23;;
17606;SDS011;8922;52.240;20.980;2022-10-04T16:40:26;4.10;;;2.00;;
17606;SDS011;8922;52.240;20.980;2022-10-04T16:43:01;2.67;;;2.23;;
17606;SDS011;8922;52.240;20.980;2022-10-04T16:45:36;6.87;;;2.50;;
17606;SDS011;8922;52.240;20.980;2022-10-04T16:48:12;4.57;;;2.27;;
17606;SDS011;8922;52.240;20.980;2022-10-04T16:50:52;5.60;;;2.20;;
17606;SDS011;8922;52.240;20.980;2022-10-04T16:53:35;5.53;;;3.60;;
17606;SDS011;8922;52.240;20.980;2022-10-04T16:56:12;3.97;;;2.00;;
17606;SDS011;8922;52.240;20.980;2022-10-04T16:58:51;3.77;;;2.50;;
17606;SDS011;8922;52.240;20.980;2022-10-04T17:04:48;4.83;;;2.60;;
17606;SDS011;8922;52.240;20.980;2022-10-04T17:07:21;6.10;;;2.97;;
17606;SDS011;8922;52.240;20.980;2022-10-04T17:10:01;5.93;;;3.00;;
17606;SDS011;8922;52.240;20.980;2022-10-04T17:12:45;4.73;;;2.80;;
17606;SDS011;8922;52.240;20.980;2022-10-04T17:18:12;4.93;;;3.57;;
17606;SDS011;8922;52.240;20.980;2022-10-04T17:20:49;5.43;;;3.10;;
17606;SDS011;8922;52.240;20.980;2022-10-04T17:26:23;5.20;;;3.53;;
17606;SDS011;8922;52.240;20.980;2022-10-04T17:29:05;8.57;;;4.17;;
17606;SDS011;8922;52.240;20.980;2022-10-04T17:31:47;8.43;;;4.70;;
17606;SDS011;8922;52.240;20.980;2022-10-04T17:34:20;7.93;;;3.67;;
17606;SDS011;8922;52.240;20.980;2022-10-04T17:36:57;8.00;;;4.50;;
17606;SDS011;8922;52.240;20.980;2022-10-04T17:39:38;10.30;;;4.37;;
17606;SDS011;8922;52.240;20.980;2022-10-04T17:45:13;7.23;;;4.67;;
17606;SDS011;8922;52.240;20.980;2022-10-04T17:47:55;10.73;;;5.63;;
17606;SDS011;8922;52.240;20.980;2022-10-04T17:50:44;8.93;;;5.23;;
17606;SDS011;8922;52.240;20.980;2022-10-04T17:53:36;9.53;;;4.90;;
17606;SDS011;8922;52.240;20.980;2022-10-04T17:56:29;10.23;;;5.30;;
17606;SDS011;8922;52.240;20.980;2022-10-04T17:59:04;11.83;;;6.23;;
17606;SDS011;8922;52.240;20.980;2022-10-04T18:01:37;9.17;;;5.50;;
17606;SDS011;8922;52.240;20.980;2022-10-04T18:04:12;10.07;;;5.20;;
17606;SDS011;8922;52.240;20.980;2022-10-04T18:06:47;11.13;;;5.40;;
17606;SDS011;8922;52.240;20.980;2022-10-04T18:09:20;7.43;;;5.27;;
17606;SDS011;8922;52.240;20.980;2022-10-04T18:11:52;9.60;;;5.17;;
17606;SDS011;8922;52.240;20.980;2022-10-04T18:17:23;9.47;;;5.33;;
17606;SDS011;8922;52.240;20.980;2022-10-04T18:19:57;11.43;;;5.00;;
17606;SDS011;8922;52.240;20.980;2022-10-04T18:22:40;7.70;;;4.90;;
17606;SDS011;8922;52.240;20.980;2022-10-04T18:25:13;9.47;;;5.33;;
17606;SDS011;8922;52.240;20.980;2022-10-04T18:27:48;11.10;;;5.60;;